createdAt,value
2019-02-28T00:00:01.925Z,1003.53
2019-02-28T00:01:01.918Z,1003.50
2019-02-28T00:02:01.899Z,1003.51
2019-02-28T00:03:01.887Z,1003.48
2019-02-28T00:04:01.877Z,1003.50
2019-02-28T00:05:05.856Z,1003.48
2019-02-28T00:06:01.856Z,1003.49
2019-02-28T00:07:01.850Z,1003.44
2019-02-28T00:08:01.834Z,1003.45
2019-02-28T00:09:01.824Z,1003.41
2019-02-28T00:10:01.814Z,1003.39
2019-02-28T00:11:01.986Z,1003.37
2019-02-28T00:12:01.792Z,1003.40
2019-02-28T00:13:01.782Z,1003.39
2019-02-28T00:14:01.771Z,1003.38
2019-02-28T00:15:01.765Z,1003.37
2019-02-28T00:16:03.251Z,1003.38
2019-02-28T00:17:01.740Z,1003.38
2019-02-28T00:18:03.616Z,1003.33
2019-02-28T00:19:01.718Z,1003.36
2019-02-28T00:20:01.728Z,1003.36
2019-02-28T00:21:06.047Z,1003.31
2019-02-28T00:22:01.690Z,1003.29
2019-02-28T00:23:02.775Z,1003.29
2019-02-28T00:24:01.665Z,1003.27
2019-02-28T00:25:04.315Z,1003.30
2019-02-28T00:26:01.644Z,1003.24
2019-02-28T00:27:01.632Z,1003.27
2019-02-28T00:28:01.626Z,1003.29
2019-02-28T00:29:01.612Z,1003.30
2019-02-28T00:30:01.602Z,1003.26
2019-02-28T00:31:01.589Z,1003.26
2019-02-28T00:32:01.579Z,1003.27
2019-02-28T00:33:01.568Z,1003.23
2019-02-28T00:34:04.521Z,1003.22
2019-02-28T00:35:01.549Z,1003.21
2019-02-28T00:36:01.536Z,1003.18
2019-02-28T00:37:01.526Z,1003.18
2019-02-28T00:38:01.517Z,1003.17
2019-02-28T00:39:01.505Z,1003.21
2019-02-28T00:40:01.494Z,1003.18
2019-02-28T00:41:01.483Z,1003.16
2019-02-28T00:42:01.479Z,1003.13
2019-02-28T00:43:01.461Z,1003.10
2019-02-28T00:44:01.451Z,1003.10
2019-02-28T00:45:02.675Z,1003.04
2019-02-28T00:46:01.445Z,1003.08
2019-02-28T00:47:01.418Z,1003.06
2019-02-28T00:48:01.409Z,1003.05
2019-02-28T00:49:01.397Z,1003.05
2019-02-28T00:50:01.387Z,1003.07
2019-02-28T00:51:01.379Z,1003.05
2019-02-28T00:52:02.215Z,1003.07
2019-02-28T00:53:01.359Z,1003.07
2019-02-28T00:54:01.347Z,1003.07
2019-02-28T00:55:01.333Z,1003.02
2019-02-28T00:56:01.322Z,1003.05
2019-02-28T00:57:01.312Z,1003.04
2019-02-28T00:58:01.301Z,1003.05
2019-02-28T00:59:01.303Z,1003.04
2019-02-28T01:00:04.859Z,1003.04
2019-02-28T01:01:01.271Z,1003.07
2019-02-28T01:02:01.258Z,1003.06
2019-02-28T01:03:01.247Z,1003.00
2019-02-28T01:04:01.242Z,1003.00
2019-02-28T01:05:04.565Z,1003.03
2019-02-28T01:06:01.217Z,1003.02
2019-02-28T01:07:01.204Z,1003.04
2019-02-28T01:08:01.206Z,1002.99
2019-02-28T01:09:01.183Z,1002.98
2019-02-28T01:10:01.445Z,1003.02
2019-02-28T01:11:01.161Z,1003.01
2019-02-28T01:12:01.151Z,1003.01
2019-02-28T01:13:01.139Z,1002.99
2019-02-28T01:14:01.677Z,1003.00
2019-02-28T01:15:01.121Z,1003.01
2019-02-28T01:16:01.107Z,1003.00
2019-02-28T01:17:01.098Z,1002.99
2019-02-28T01:18:01.576Z,1003.00
2019-02-28T01:19:01.074Z,1003.00
2019-02-28T01:20:01.065Z,1002.94
2019-02-28T01:21:01.053Z,1002.97
2019-02-28T01:22:01.044Z,1002.94
2019-02-28T01:23:01.031Z,1002.91
2019-02-28T01:24:01.761Z,1002.94
2019-02-28T01:25:01.009Z,1002.93
2019-02-28T01:26:00.999Z,1002.92
2019-02-28T01:27:00.988Z,1002.89
2019-02-28T01:28:01.827Z,1002.90
2019-02-28T01:29:01.833Z,1002.88
2019-02-28T01:30:00.955Z,1002.87
2019-02-28T01:31:00.944Z,1002.89
2019-02-28T01:32:00.940Z,1002.85
2019-02-28T01:33:00.924Z,1002.84
2019-02-28T01:34:00.911Z,1002.81
2019-02-28T01:35:05.855Z,1002.83
2019-02-28T01:36:00.889Z,1002.80
2019-02-28T01:37:00.877Z,1002.80
2019-02-28T01:38:00.868Z,1002.82
2019-02-28T01:39:00.857Z,1002.80
2019-02-28T01:40:01.041Z,1002.80
2019-02-28T01:41:00.851Z,1002.78
2019-02-28T01:42:00.825Z,1002.76
2019-02-28T01:43:00.960Z,1002.76
2019-02-28T01:44:01.720Z,1002.76
2019-02-28T01:45:00.798Z,1002.74
2019-02-28T01:46:00.778Z,1002.76
2019-02-28T01:47:00.766Z,1002.73
2019-02-28T01:48:00.756Z,1002.73
2019-02-28T01:49:00.744Z,1002.68
2019-02-28T01:50:00.734Z,1002.65
2019-02-28T01:51:01.597Z,1002.64
2019-02-28T01:52:00.711Z,1002.65
2019-02-28T01:53:00.700Z,1002.65
2019-02-28T01:54:00.689Z,1002.63
2019-02-28T01:55:00.677Z,1002.61
2019-02-28T01:56:02.412Z,1002.60
2019-02-28T01:57:00.662Z,1002.60
2019-02-28T01:58:00.645Z,1002.56
2019-02-28T01:59:01.084Z,1002.56
2019-02-28T02:00:00.649Z,1002.55
2019-02-28T02:01:00.611Z,1002.54
2019-02-28T02:02:05.562Z,1002.50
2019-02-28T02:03:00.595Z,1002.54
2019-02-28T02:04:00.578Z,1002.49
2019-02-28T02:05:00.568Z,1002.47
2019-02-28T02:06:00.556Z,1002.43
2019-02-28T02:07:00.546Z,1002.43
2019-02-28T02:08:00.533Z,1002.45
2019-02-28T02:09:00.523Z,1002.40
2019-02-28T02:10:00.511Z,1002.39
2019-02-28T02:11:00.499Z,1002.38
2019-02-28T02:12:00.489Z,1002.39
2019-02-28T02:13:03.124Z,1002.38
2019-02-28T02:14:00.468Z,1002.34
2019-02-28T02:15:00.455Z,1002.33
2019-02-28T02:16:00.445Z,1002.34
2019-02-28T02:17:01.232Z,1002.29
2019-02-28T02:18:01.627Z,1002.28
2019-02-28T02:19:00.438Z,1002.26
2019-02-28T02:20:00.399Z,1002.29
2019-02-28T02:21:00.914Z,1002.26
2019-02-28T02:22:00.392Z,1002.28
2019-02-28T02:23:00.366Z,1002.29
2019-02-28T02:24:00.355Z,1002.28
2019-02-28T02:25:03.147Z,1002.28
2019-02-28T02:26:00.333Z,1002.25
2019-02-28T02:27:00.326Z,1002.29
2019-02-28T02:28:00.311Z,1002.25
2019-02-28T02:29:01.208Z,1002.25
2019-02-28T02:30:00.476Z,1002.24
2019-02-28T02:31:00.277Z,1002.23
2019-02-28T02:32:02.357Z,1002.22
2019-02-28T02:33:00.308Z,1002.24
2019-02-28T02:34:00.296Z,1002.23
2019-02-28T02:35:06.257Z,1002.24
2019-02-28T02:36:00.272Z,1002.21
2019-02-28T02:37:00.262Z,1002.19
2019-02-28T02:38:03.537Z,1002.16
2019-02-28T02:39:00.238Z,1002.16
2019-02-28T02:40:00.617Z,1002.14
2019-02-28T02:41:01.035Z,1002.15
2019-02-28T02:42:00.156Z,1002.15
2019-02-28T02:43:00.198Z,1002.22
2019-02-28T02:44:00.183Z,1002.17
2019-02-28T02:45:05.074Z,1002.14
2019-02-28T02:46:00.110Z,1002.18
2019-02-28T02:47:00.100Z,1002.16
2019-02-28T02:48:00.088Z,1002.16
2019-02-28T02:49:00.078Z,1002.16
2019-02-28T02:50:00.189Z,1002.16
2019-02-28T02:51:00.054Z,1002.14
2019-02-28T02:52:00.043Z,1002.13
2019-02-28T02:53:04.956Z,1002.12
2019-02-28T02:54:00.022Z,1002.08
2019-02-28T02:55:00.010Z,1002.07
2019-02-28T02:56:03.543Z,1002.01
2019-02-28T02:56:59.988Z,1002.05
2019-02-28T02:57:59.977Z,1002.03
2019-02-28T02:59:01.988Z,1002.01
2019-02-28T02:59:59.955Z,1002.00
2019-02-28T03:00:59.942Z,1001.97
2019-02-28T03:01:59.932Z,1001.88
2019-02-28T03:02:59.919Z,1001.93
2019-02-28T03:03:59.908Z,1001.91
2019-02-28T03:04:59.899Z,1001.88
2019-02-28T03:05:59.890Z,1001.87
2019-02-28T03:06:59.877Z,1001.85
2019-02-28T03:08:01.124Z,1001.86
2019-02-28T03:08:59.856Z,1001.85
2019-02-28T03:09:59.840Z,1001.84
2019-02-28T03:10:59.828Z,1001.80
2019-02-28T03:11:59.817Z,1001.80
2019-02-28T03:12:59.817Z,1001.77
2019-02-28T03:13:59.795Z,1001.75
2019-02-28T03:14:59.782Z,1001.76
2019-02-28T03:16:00.529Z,1001.77
2019-02-28T03:16:59.759Z,1001.78
2019-02-28T03:17:59.750Z,1001.74
2019-02-28T03:18:59.738Z,1001.74
2019-02-28T03:19:59.725Z,1001.78
2019-02-28T03:20:59.715Z,1001.74
2019-02-28T03:21:59.703Z,1001.74
2019-02-28T03:23:02.253Z,1001.72
2019-02-28T03:23:59.680Z,1001.72
2019-02-28T03:24:59.669Z,1001.68
2019-02-28T03:26:05.315Z,1001.68
2019-02-28T03:26:59.647Z,1001.72
2019-02-28T03:27:59.634Z,1001.68
2019-02-28T03:28:59.635Z,1001.72
2019-02-28T03:29:59.611Z,1001.70
2019-02-28T03:31:11.769Z,1001.67
2019-02-28T03:31:59.935Z,1001.68
2019-02-28T03:32:59.577Z,1001.72
2019-02-28T03:34:10.422Z,1001.62
2019-02-28T03:34:59.683Z,1001.67
2019-02-28T03:35:59.544Z,1001.65
2019-02-28T03:36:59.530Z,1001.62
2019-02-28T03:37:59.522Z,1001.63
2019-02-28T03:38:59.508Z,1001.58
2019-02-28T03:40:04.353Z,1001.59
2019-02-28T03:40:59.486Z,1001.59
2019-02-28T03:41:59.481Z,1001.54
2019-02-28T03:43:05.542Z,1001.52
2019-02-28T03:43:59.450Z,1001.48
2019-02-28T03:44:59.438Z,1001.51
2019-02-28T03:45:59.426Z,1001.47
2019-02-28T03:46:59.415Z,1001.43
2019-02-28T03:47:59.834Z,1001.46
2019-02-28T03:48:59.394Z,1001.45
2019-02-28T03:49:59.381Z,1001.43
2019-02-28T03:50:59.369Z,1001.45
2019-02-28T03:52:05.377Z,1001.45
2019-02-28T03:52:59.346Z,1001.45
2019-02-28T03:53:59.336Z,1001.49
2019-02-28T03:55:03.174Z,1001.48
2019-02-28T03:55:59.311Z,1001.48
2019-02-28T03:56:59.300Z,1001.43
2019-02-28T03:58:03.733Z,1001.45
2019-02-28T03:58:59.275Z,1001.44
2019-02-28T03:59:59.335Z,1001.46
2019-02-28T04:00:59.256Z,1001.47
2019-02-28T04:01:59.242Z,1001.50
2019-02-28T04:02:59.303Z,1001.52
2019-02-28T04:03:59.218Z,1001.49
2019-02-28T04:04:59.209Z,1001.48
2019-02-28T04:06:03.301Z,1001.46
2019-02-28T04:06:59.182Z,1001.51
2019-02-28T04:07:59.173Z,1001.50
2019-02-28T04:09:07.032Z,1001.49
2019-02-28T04:09:59.152Z,1001.48
2019-02-28T04:10:59.137Z,1001.46
2019-02-28T04:11:59.127Z,1001.50
2019-02-28T04:12:59.122Z,1001.46
2019-02-28T04:13:59.102Z,1001.49
2019-02-28T04:14:59.090Z,1001.50
2019-02-28T04:16:08.757Z,1001.48
2019-02-28T04:16:59.068Z,1001.49
2019-02-28T04:17:59.055Z,1001.50
2019-02-28T04:18:59.045Z,1001.49
2019-02-28T04:20:00.480Z,1001.47
2019-02-28T04:20:59.025Z,1001.53
2019-02-28T04:21:59.010Z,1001.48
2019-02-28T04:23:00.240Z,1001.51
2019-02-28T04:23:58.990Z,1001.50
2019-02-28T04:24:58.975Z,1001.55
2019-02-28T04:25:58.963Z,1001.54
2019-02-28T04:27:06.268Z,1001.54
2019-02-28T04:27:58.941Z,1001.56
2019-02-28T04:28:58.928Z,1001.53
2019-02-28T04:30:06.607Z,1001.53
2019-02-28T04:30:58.905Z,1001.51
2019-02-28T04:31:58.899Z,1001.56
2019-02-28T04:33:01.414Z,1001.51
2019-02-28T04:33:58.872Z,1001.50
2019-02-28T04:34:58.859Z,1001.52
2019-02-28T04:36:00.605Z,1001.50
2019-02-28T04:36:58.837Z,1001.51
2019-02-28T04:37:58.829Z,1001.50
2019-02-28T04:38:58.812Z,1001.52
2019-02-28T04:39:58.802Z,1001.56
2019-02-28T04:40:59.940Z,1001.58
2019-02-28T04:41:58.778Z,1001.55
2019-02-28T04:42:58.769Z,1001.55
2019-02-28T04:43:58.755Z,1001.58
2019-02-28T04:44:58.752Z,1001.54
2019-02-28T04:45:58.733Z,1001.57
2019-02-28T04:46:58.721Z,1001.55
2019-02-28T04:47:58.709Z,1001.59
2019-02-28T04:48:58.700Z,1001.61
2019-02-28T04:49:58.688Z,1001.55
2019-02-28T04:50:58.676Z,1001.60
2019-02-28T04:51:58.664Z,1001.57
2019-02-28T04:52:58.674Z,1001.56
2019-02-28T04:53:58.641Z,1001.59
2019-02-28T04:54:59.386Z,1001.61
2019-02-28T04:55:58.618Z,1001.60
2019-02-28T04:56:58.606Z,1001.63
2019-02-28T04:57:58.596Z,1001.60
2019-02-28T04:58:59.508Z,1001.56
2019-02-28T04:59:58.572Z,1001.59
2019-02-28T05:00:58.562Z,1001.63
2019-02-28T05:01:58.550Z,1001.60
2019-02-28T05:02:58.537Z,1001.56
2019-02-28T05:03:59.168Z,1001.56
2019-02-28T05:04:58.516Z,1001.58
2019-02-28T05:05:58.504Z,1001.52
2019-02-28T05:06:58.493Z,1001.50
2019-02-28T05:08:04.526Z,1001.54
2019-02-28T05:08:58.470Z,1001.52
2019-02-28T05:09:58.458Z,1001.50
2019-02-28T05:10:58.446Z,1001.47
2019-02-28T05:11:58.435Z,1001.45
2019-02-28T05:12:58.423Z,1001.41
2019-02-28T05:13:58.417Z,1001.41
2019-02-28T05:15:02.179Z,1001.41
2019-02-28T05:15:58.389Z,1001.41
2019-02-28T05:16:58.378Z,1001.37
2019-02-28T05:17:58.366Z,1001.39
2019-02-28T05:19:01.536Z,1001.40
2019-02-28T05:19:58.345Z,1001.40
2019-02-28T05:20:58.334Z,1001.40
2019-02-28T05:21:58.320Z,1001.41
2019-02-28T05:22:59.255Z,1001.42
2019-02-28T05:23:58.300Z,1001.43
2019-02-28T05:24:58.285Z,1001.37
2019-02-28T05:25:58.274Z,1001.30
2019-02-28T05:27:00.328Z,1001.29
2019-02-28T05:27:58.251Z,1001.28
2019-02-28T05:28:58.244Z,1001.26
2019-02-28T05:29:58.228Z,1001.29
2019-02-28T05:30:58.219Z,1001.22
2019-02-28T05:32:00.961Z,1001.22
2019-02-28T05:32:58.194Z,1001.20
2019-02-28T05:33:58.182Z,1001.21
2019-02-28T05:34:58.169Z,1001.17
2019-02-28T05:36:00.140Z,1001.17
2019-02-28T05:36:58.148Z,1001.19
2019-02-28T05:37:58.137Z,1001.18
2019-02-28T05:38:58.128Z,1001.13
2019-02-28T05:39:58.115Z,1001.18
2019-02-28T05:40:58.101Z,1001.24
2019-02-28T05:41:58.091Z,1001.18
2019-02-28T05:42:58.489Z,1001.18
2019-02-28T05:43:58.066Z,1001.19
2019-02-28T05:44:58.055Z,1001.15
2019-02-28T05:45:59.402Z,1001.19
2019-02-28T05:46:58.790Z,1001.14
2019-02-28T05:47:58.021Z,1001.13
2019-02-28T05:48:58.010Z,1001.10
2019-02-28T05:49:58.002Z,1001.11
2019-02-28T05:50:57.986Z,1001.08
2019-02-28T05:51:59.198Z,1001.06
2019-02-28T05:52:57.962Z,1001.00
2019-02-28T05:53:57.951Z,1001.02
2019-02-28T05:54:57.948Z,1000.97
2019-02-28T05:55:59.885Z,1000.98
2019-02-28T05:56:57.917Z,1000.99
2019-02-28T05:57:57.906Z,1000.98
2019-02-28T05:58:57.894Z,1000.98
2019-02-28T06:00:01.333Z,1000.97
2019-02-28T06:00:57.875Z,1000.99
2019-02-28T06:01:57.860Z,1001.00
2019-02-28T06:02:58.986Z,1001.02
2019-02-28T06:04:02.887Z,1001.01
2019-02-28T06:04:57.824Z,1001.02
2019-02-28T06:05:57.813Z,1001.09
2019-02-28T06:06:57.803Z,1001.11
2019-02-28T06:08:00.523Z,1001.06
2019-02-28T06:08:57.778Z,1001.11
2019-02-28T06:09:57.766Z,1001.11
2019-02-28T06:11:00.643Z,1001.16
2019-02-28T06:11:57.745Z,1001.14
2019-02-28T06:12:57.731Z,1001.16
2019-02-28T06:13:57.720Z,1001.15
2019-02-28T06:15:02.009Z,1001.13
2019-02-28T06:15:57.698Z,1001.13
2019-02-28T06:16:57.685Z,1001.11
2019-02-28T06:17:57.674Z,1001.12
2019-02-28T06:18:57.661Z,1001.10
2019-02-28T06:19:57.654Z,1001.15
2019-02-28T06:20:57.638Z,1001.13
2019-02-28T06:21:59.492Z,1001.13
2019-02-28T06:22:57.615Z,1001.09
2019-02-28T06:23:57.603Z,1001.09
2019-02-28T06:24:57.592Z,1001.11
2019-02-28T06:25:59.363Z,1001.12
2019-02-28T06:26:57.568Z,1001.09
2019-02-28T06:27:57.557Z,1001.06
2019-02-28T06:28:57.546Z,1001.02
2019-02-28T06:29:57.539Z,1001.00
2019-02-28T06:30:57.522Z,1001.01
2019-02-28T06:31:57.510Z,1000.99
2019-02-28T06:32:59.172Z,1001.00
2019-02-28T06:33:57.487Z,1001.07
2019-02-28T06:34:57.475Z,1001.03
2019-02-28T06:35:57.463Z,1001.04
2019-02-28T06:37:00.332Z,1001.04
2019-02-28T06:37:57.440Z,1001.01
2019-02-28T06:38:57.430Z,1001.05
2019-02-28T06:39:58.637Z,1001.03
2019-02-28T06:40:57.408Z,1001.06
2019-02-28T06:41:57.393Z,1001.09
2019-02-28T06:42:57.383Z,1001.09
2019-02-28T06:43:57.370Z,1001.08
2019-02-28T06:44:58.719Z,1001.06
2019-02-28T06:45:57.353Z,1001.05
2019-02-28T06:46:57.338Z,1001.05
2019-02-28T06:47:58.115Z,1001.02
2019-02-28T06:49:01.648Z,1000.98
2019-02-28T06:49:57.299Z,1000.96
2019-02-28T06:50:57.287Z,1000.95
2019-02-28T06:51:57.276Z,1000.96
2019-02-28T06:52:59.370Z,1000.91
2019-02-28T06:53:57.253Z,1000.94
2019-02-28T06:54:57.242Z,1000.93
2019-02-28T06:55:57.229Z,1000.92
2019-02-28T06:56:57.221Z,1000.84
2019-02-28T06:57:58.903Z,1000.85
2019-02-28T06:58:57.194Z,1000.87
2019-02-28T06:59:57.183Z,1000.83
2019-02-28T07:00:57.171Z,1000.83
2019-02-28T07:01:57.740Z,1000.84
2019-02-28T07:02:57.157Z,1000.83
2019-02-28T07:03:57.136Z,1000.84
2019-02-28T07:04:57.129Z,1000.81
2019-02-28T07:05:57.647Z,1000.85
2019-02-28T07:06:57.101Z,1000.83
2019-02-28T07:07:57.138Z,1000.89
2019-02-28T07:09:02.120Z,1000.92
2019-02-28T07:09:57.068Z,1000.88
2019-02-28T07:10:57.056Z,1000.85
2019-02-28T07:11:57.045Z,1000.88
2019-02-28T07:12:57.037Z,1000.85
2019-02-28T07:13:57.022Z,1000.85
2019-02-28T07:14:57.010Z,1000.90
2019-02-28T07:15:58.934Z,1000.85
2019-02-28T07:16:56.989Z,1000.85
2019-02-28T07:17:56.996Z,1000.84
2019-02-28T07:18:56.965Z,1000.86
2019-02-28T07:20:01.638Z,1000.86
2019-02-28T07:20:56.943Z,1000.81
2019-02-28T07:21:56.955Z,1000.78
2019-02-28T07:22:56.920Z,1000.81
2019-02-28T07:23:56.909Z,1000.82
2019-02-28T07:24:56.898Z,1000.86
2019-02-28T07:25:56.887Z,1000.86
2019-02-28T07:26:56.875Z,1000.84
2019-02-28T07:27:56.867Z,1000.84
2019-02-28T07:28:56.853Z,1000.85
2019-02-28T07:29:56.842Z,1000.86
2019-02-28T07:30:56.831Z,1000.85
2019-02-28T07:31:59.976Z,1000.86
2019-02-28T07:32:56.811Z,1000.90
2019-02-28T07:33:56.799Z,1000.96
2019-02-28T07:34:58.083Z,1000.95
2019-02-28T07:35:56.777Z,1000.97
2019-02-28T07:36:56.766Z,1000.96
2019-02-28T07:37:56.758Z,1001.01
2019-02-28T07:38:57.817Z,1000.99
2019-02-28T07:39:56.735Z,1001.00
2019-02-28T07:40:56.724Z,1000.94
2019-02-28T07:41:58.890Z,1000.93
2019-02-28T07:42:56.702Z,1000.96
2019-02-28T07:43:56.698Z,1000.92
2019-02-28T07:44:57.870Z,1000.95
2019-02-28T07:45:56.674Z,1000.95
2019-02-28T07:46:56.662Z,1000.96
2019-02-28T07:47:56.652Z,1000.86
2019-02-28T07:48:56.643Z,1000.92
2019-02-28T07:49:56.635Z,1000.95
2019-02-28T07:50:59.139Z,1000.98
2019-02-28T07:51:57.214Z,1001.03
2019-02-28T07:52:56.608Z,1001.05
2019-02-28T07:53:56.600Z,1001.07
2019-02-28T07:54:56.591Z,1001.00
2019-02-28T07:55:56.584Z,1001.02
2019-02-28T07:56:56.577Z,1001.04
2019-02-28T07:57:56.771Z,1001.00
2019-02-28T07:58:56.565Z,1000.97
2019-02-28T07:59:56.555Z,1000.96
2019-02-28T08:00:56.549Z,1000.94
2019-02-28T08:01:56.621Z,1000.95
2019-02-28T08:02:56.535Z,1000.94
2019-02-28T08:03:56.530Z,1000.88
2019-02-28T08:04:56.524Z,1000.84
2019-02-28T08:05:56.519Z,1000.87
2019-02-28T08:06:56.511Z,1000.81
2019-02-28T08:07:56.505Z,1000.86
2019-02-28T08:08:56.504Z,1000.86
2019-02-28T08:09:58.095Z,1000.82
2019-02-28T08:10:56.487Z,1000.79
2019-02-28T08:11:56.800Z,1000.85
2019-02-28T08:12:56.476Z,1000.83
2019-02-28T08:13:56.470Z,1000.86
2019-02-28T08:14:56.463Z,1000.89
2019-02-28T08:16:00.215Z,1000.86
2019-02-28T08:16:56.451Z,1000.83
2019-02-28T08:17:56.462Z,1000.90
2019-02-28T08:18:56.437Z,1000.93
2019-02-28T08:19:58.768Z,1000.86
2019-02-28T08:20:56.427Z,1000.87
2019-02-28T08:21:56.417Z,1000.86
2019-02-28T08:22:57.661Z,1000.87
2019-02-28T08:23:56.403Z,1000.87
2019-02-28T08:24:56.396Z,1000.90
2019-02-28T08:25:56.394Z,1000.88
2019-02-28T08:26:56.381Z,1000.91
2019-02-28T08:27:59.581Z,1000.96
2019-02-28T08:28:56.365Z,1000.95
2019-02-28T08:29:56.358Z,1000.95
2019-02-28T08:30:56.350Z,1000.96
2019-02-28T08:31:57.540Z,1000.99
2019-02-28T08:32:56.335Z,1000.96
2019-02-28T08:33:56.340Z,1000.94
2019-02-28T08:34:59.531Z,1000.95
2019-02-28T08:35:56.313Z,1000.99
2019-02-28T08:36:56.305Z,1000.97
2019-02-28T08:37:57.382Z,1000.97
2019-02-28T08:38:56.296Z,1000.91
2019-02-28T08:39:56.282Z,1000.94
2019-02-28T08:40:56.275Z,1000.88
2019-02-28T08:42:02.855Z,1000.92
2019-02-28T08:42:56.277Z,1000.88
2019-02-28T08:43:56.253Z,1000.88
2019-02-28T08:44:58.957Z,1000.89
2019-02-28T08:45:56.241Z,1000.92
2019-02-28T08:46:56.235Z,1000.96
2019-02-28T08:47:56.966Z,1000.90
2019-02-28T08:48:56.218Z,1000.92
2019-02-28T08:49:56.212Z,1000.89
2019-02-28T08:50:56.727Z,1000.93
2019-02-28T08:51:56.196Z,1000.92
2019-02-28T08:52:56.190Z,1000.88
2019-02-28T08:53:56.183Z,1000.89
2019-02-28T08:54:56.175Z,1000.83
2019-02-28T08:55:56.168Z,1000.84
2019-02-28T08:56:56.160Z,1000.80
2019-02-28T08:58:04.044Z,1000.74
2019-02-28T08:58:56.146Z,1000.76
2019-02-28T08:59:57.071Z,1000.77
2019-02-28T09:00:56.136Z,1000.78
2019-02-28T09:01:56.125Z,1000.78
2019-02-28T09:02:56.117Z,1000.77
2019-02-28T09:03:56.110Z,1000.80
2019-02-28T09:04:56.104Z,1000.77
2019-02-28T09:05:56.096Z,1000.67
2019-02-28T09:06:56.088Z,1000.69
2019-02-28T09:07:57.671Z,1000.68
2019-02-28T09:08:56.607Z,1000.70
2019-02-28T09:09:56.067Z,1000.72
2019-02-28T09:10:56.063Z,1000.69
2019-02-28T09:11:57.987Z,1000.75
2019-02-28T09:12:56.046Z,1000.74
2019-02-28T09:13:56.044Z,1000.77
2019-02-28T09:14:56.338Z,1000.74
2019-02-28T09:15:56.021Z,1000.79
2019-02-28T09:16:56.013Z,1000.78
2019-02-28T09:17:59.362Z,1000.71
2019-02-28T09:18:57.461Z,1000.73
2019-02-28T09:19:55.989Z,1000.67
2019-02-28T09:20:56.031Z,1000.66
2019-02-28T09:21:55.973Z,1000.66
2019-02-28T09:23:01.555Z,1000.68
2019-02-28T09:23:55.957Z,1000.71
2019-02-28T09:24:55.949Z,1000.69
2019-02-28T09:25:56.752Z,1000.68
2019-02-28T09:26:55.935Z,1000.63
2019-02-28T09:27:55.928Z,1000.66
2019-02-28T09:28:55.918Z,1000.67
2019-02-28T09:29:55.910Z,1000.63
2019-02-28T09:30:55.902Z,1000.67
2019-02-28T09:31:56.281Z,1000.62
2019-02-28T09:32:57.691Z,1000.65
2019-02-28T09:33:58.890Z,1000.64
2019-02-28T09:34:55.871Z,1000.69
2019-02-28T09:35:55.864Z,1000.69
2019-02-28T09:36:56.879Z,1000.72
2019-02-28T09:37:55.849Z,1000.72
2019-02-28T09:38:57.254Z,1000.72
2019-02-28T09:39:55.834Z,1000.74
2019-02-28T09:40:55.829Z,1000.75
2019-02-28T09:41:55.818Z,1000.69
2019-02-28T09:42:55.811Z,1000.74
2019-02-28T09:43:56.860Z,1000.68
2019-02-28T09:44:55.797Z,1000.70
2019-02-28T09:45:55.788Z,1000.70
2019-02-28T09:46:55.779Z,1000.70
2019-02-28T09:48:00.774Z,1000.77
2019-02-28T09:48:55.764Z,1000.74
2019-02-28T09:49:55.756Z,1000.77
2019-02-28T09:50:58.265Z,1000.78
2019-02-28T09:51:55.740Z,1000.80
2019-02-28T09:52:55.737Z,1000.77
2019-02-28T09:53:55.725Z,1000.84
2019-02-28T09:54:56.280Z,1000.84
2019-02-28T09:55:55.710Z,1000.89
2019-02-28T09:56:55.702Z,1000.87
2019-02-28T09:57:57.507Z,1000.87
2019-02-28T09:58:55.686Z,1000.87
2019-02-28T09:59:55.678Z,1000.89
2019-02-28T10:00:55.671Z,1000.96
2019-02-28T10:02:01.310Z,1000.97
2019-02-28T10:02:55.655Z,1001.02
2019-02-28T10:03:56.219Z,1000.98
2019-02-28T10:04:55.641Z,1001.02
2019-02-28T10:05:55.633Z,1000.97
2019-02-28T10:06:56.861Z,1001.06
2019-02-28T10:08:01.543Z,1001.05
2019-02-28T10:08:55.607Z,1000.95
2019-02-28T10:09:55.599Z,1000.99
2019-02-28T10:10:56.102Z,1001.14
2019-02-28T10:11:55.582Z,1001.05
2019-02-28T10:12:56.834Z,1000.99
2019-02-28T10:13:55.574Z,1001.02
2019-02-28T10:14:55.557Z,1001.09
2019-02-28T10:15:55.550Z,1001.03
2019-02-28T10:16:55.544Z,1001.02
2019-02-28T10:17:55.535Z,1001.14
2019-02-28T10:18:55.544Z,1001.12
2019-02-28T10:19:55.518Z,1001.10
2019-02-28T10:20:55.561Z,1001.13
2019-02-28T10:21:55.504Z,1001.19
2019-02-28T10:22:55.496Z,1001.09
2019-02-28T10:23:56.990Z,1001.13
2019-02-28T10:24:55.480Z,1001.06
2019-02-28T10:25:55.474Z,1001.08
2019-02-28T10:26:55.465Z,1001.16
2019-02-28T10:27:58.635Z,1001.11
2019-02-28T10:28:55.453Z,1001.04
2019-02-28T10:29:55.444Z,1001.05
2019-02-28T10:30:55.487Z,1001.11
2019-02-28T10:31:55.431Z,1001.05
2019-02-28T10:32:55.423Z,1001.03
2019-02-28T10:33:55.416Z,1001.04
2019-02-28T10:34:58.287Z,1000.94
2019-02-28T10:35:55.401Z,1001.01
2019-02-28T10:36:55.394Z,1001.05
2019-02-28T10:37:58.528Z,1000.95
2019-02-28T10:38:55.380Z,1000.93
2019-02-28T10:39:55.372Z,1000.97
2019-02-28T10:40:55.366Z,1000.93
2019-02-28T10:41:55.359Z,1000.94
2019-02-28T10:42:55.352Z,1000.96
2019-02-28T10:43:56.010Z,1001.03
2019-02-28T10:44:55.340Z,1000.99
2019-02-28T10:45:55.335Z,1000.98
2019-02-28T10:46:55.329Z,1001.01
2019-02-28T10:47:55.328Z,1000.95
2019-02-28T10:48:55.320Z,1000.95
2019-02-28T10:49:58.140Z,1000.90
2019-02-28T10:50:55.313Z,1000.93
2019-02-28T10:51:55.312Z,1000.91
2019-02-28T10:52:55.303Z,1000.92
2019-02-28T10:53:55.315Z,1000.90
2019-02-28T10:54:55.307Z,1000.93
2019-02-28T10:55:57.942Z,1001.00
2019-02-28T10:56:55.291Z,1000.97
2019-02-28T10:57:55.281Z,1000.92
2019-02-28T10:58:55.274Z,1000.82
2019-02-28T10:59:58.176Z,1000.88
2019-02-28T11:00:55.266Z,1000.86
2019-02-28T11:01:55.262Z,1000.89
2019-02-28T11:02:57.533Z,1000.88
2019-02-28T11:03:55.254Z,1000.86
2019-02-28T11:04:55.249Z,1000.90
2019-02-28T11:05:55.246Z,1000.96
2019-02-28T11:06:55.241Z,1001.08
2019-02-28T11:07:55.239Z,1001.08
2019-02-28T11:08:55.236Z,1001.02
2019-02-28T11:09:58.298Z,1000.96
2019-02-28T11:10:55.230Z,1001.11
2019-02-28T11:11:55.228Z,1001.07
2019-02-28T11:12:57.099Z,1001.05
2019-02-28T11:13:55.223Z,1001.05
2019-02-28T11:14:55.220Z,1001.17
2019-02-28T11:15:55.223Z,1001.16
2019-02-28T11:16:58.879Z,1001.20
2019-02-28T11:17:55.215Z,1001.23
2019-02-28T11:18:55.214Z,1001.21
2019-02-28T11:19:55.210Z,1001.25
2019-02-28T11:20:58.094Z,1001.25
2019-02-28T11:21:55.209Z,1001.18
2019-02-28T11:22:55.203Z,1001.17
2019-02-28T11:23:55.201Z,1001.19
2019-02-28T11:25:00.451Z,1001.23
2019-02-28T11:25:55.201Z,1001.28
2019-02-28T11:26:55.629Z,1001.31
2019-02-28T11:27:55.197Z,1001.26
2019-02-28T11:28:55.193Z,1001.27
2019-02-28T11:29:55.190Z,1001.29
2019-02-28T11:30:55.187Z,1001.28
2019-02-28T11:31:55.186Z,1001.47
2019-02-28T11:32:55.182Z,1001.60
2019-02-28T11:33:55.180Z,1001.45
2019-02-28T11:34:55.177Z,1001.49
2019-02-28T11:35:59.101Z,1001.44
2019-02-28T11:36:55.171Z,1001.45
2019-02-28T11:37:55.167Z,1001.41
2019-02-28T11:38:55.513Z,1001.37
2019-02-28T11:39:55.158Z,1001.49
2019-02-28T11:40:57.505Z,1001.40
2019-02-28T11:41:55.150Z,1001.47
2019-02-28T11:42:55.143Z,1001.42
2019-02-28T11:43:55.138Z,1001.45
2019-02-28T11:44:56.341Z,1001.39
2019-02-28T11:45:56.509Z,1001.55
2019-02-28T11:46:55.120Z,1001.42
2019-02-28T11:47:55.119Z,1001.39
2019-02-28T11:48:55.170Z,1001.44
2019-02-28T11:49:55.101Z,1001.42
2019-02-28T11:50:55.100Z,1001.41
2019-02-28T11:51:55.087Z,1001.39
2019-02-28T11:52:55.082Z,1001.34
2019-02-28T11:53:55.073Z,1001.45
2019-02-28T11:54:55.065Z,1001.38
2019-02-28T11:55:55.058Z,1001.41
2019-02-28T11:56:55.050Z,1001.38
2019-02-28T11:57:55.044Z,1001.47
2019-02-28T11:58:55.035Z,1001.41
2019-02-28T12:00:00.085Z,1001.51
2019-02-28T12:00:55.019Z,1001.36
2019-02-28T12:01:55.011Z,1001.43
2019-02-28T12:02:56.885Z,1001.52
2019-02-28T12:03:54.998Z,1001.50
2019-02-28T12:04:54.985Z,1001.42